Time;durP1;ratioP1;P1;durP2;ratioP2;P2;SDS_P1;SDS_P2;PMS_P1;PMS_P2;Temp;Humidity;BMP_temperature;BMP_pressure;BME280_temperature;BME280_humidity;BME280_pressure;Samples;Min_cycle;Max_cycle;Signal;HPM_P1;HPM_P2
2022/01/17 00:21:33;;;;;;;;;;;;;;;;;;;;;
2022/01/17 00:28:09;;;;;;;;;;;;;;;;;;;;;
2022/01/17 00:31:13;;;;;;;19.77;10.00;;;7.30;99.90;;;;;;5994163;23;20094;-89
2022/01/17 00:34:25;;;;;;;15.05;9.90;;;7.30;99.90;;;;;;6037412;23;20014;-88
2022/01/17 00:37:04;;;;;;;;;;;;;;;;;;;;;
2022/01/17 00:39:45;;;;;;;;;;;;;;;;;;;;;
2022/01/17 00:42:21;;;;;;;;;;;;;;;;;;;;;
2022/01/17 00:45:31;;;;;;;19.70;8.63;;;7.40;99.90;;;;;;6129199;23;20115;-89
2022/01/17 00:48:29;;;;;;;18.60;9.30;;;7.40;99.90;;;;;;6100859;23;20054;-88
2022/01/17 01:00:36;;;;;;;;;;;;;;;;;;;;;
2022/01/17 01:03:21;;;;;;;15.98;6.78;;;7.30;99.90;;;;;;6128635;23;20085;-89
2022/01/17 01:06:14;;;;;;;;;;;;;;;;;;;;;
2022/01/17 01:08:57;;;;;;;17.38;6.43;;;7.40;99.90;;;;;;6128691;23;20108;-88
2022/01/17 01:11:51;;;;;;;15.38;6.20;;;7.30;99.90;;;;;;6079910;23;20013;-88
2022/01/17 01:14:45;;;;;;;;;;;;;;;;;;;;;
2022/01/17 01:33:22;;;;;;;7.82;3.08;;;7.30;99.90;;;;;;6116998;23;20457;-89
2022/01/17 01:36:15;;;;;;;15.25;3.40;;;7.30;99.90;;;;;;6127459;23;20007;-88
2022/01/17 01:39:22;;;;;;;;;;;;;;;;;;;;;
2022/01/17 01:42:21;;;;;;;;;;;;;;;;;;;;;
2022/01/17 01:45:01;;;;;;;12.02;2.92;;;7.20;99.90;;;;;;6110039;23;20010;-89
2022/01/17 01:48:08;;;;;;;;;;;;;;;;;;;;;
2022/01/17 01:51:14;;;;;;;;;;;;;;;;;;;;;
2022/01/17 01:54:19;;;;;;;;;;;;;;;;;;;;;
2022/01/17 01:57:10;;;;;;;;;;;;;;;;;;;;;
2022/01/17 02:03:45;;;;;;;;;;;;;;;;;;;;;
2022/01/17 02:06:39;;;;;;;11.50;2.95;;;7.20;99.90;;;;;;6108383;23;20523;-91
2022/01/17 02:13:28;;;;;;;;;;;;;;;;;;;;;
2022/01/17 02:19:24;;;;;;;;;;;;;;;;;;;;;
2022/01/17 02:22:02;;;;;;;8.18;2.58;;;7.20;99.90;;;;;;6105520;23;20379;-88
2022/01/17 02:24:51;;;;;;;;;;;;;;;;;;;;;
2022/01/17 02:27:56;;;;;;;;;;;;;;;;;;;;;
2022/01/17 02:33:57;;;;;;;12.25;2.50;;;7.10;99.90;;;;;;6099214;23;20010;-88
2022/01/17 02:36:28;;;;;;;8.95;2.53;;;7.10;99.90;;;;;;6102021;23;20006;-88
2022/01/17 02:39:11;;;;;;;8.63;2.50;;;7.10;99.90;;;;;;6080200;23;20010;-89
2022/01/17 02:41:52;;;;;;;12.43;2.38;;;7.00;99.90;;;;;;6127715;23;20428;-88
2022/01/17 02:45:18;;;;;;;9.95;2.10;;;7.00;99.90;;;;;;6078310;23;20010;-88
2022/01/17 02:48:29;;;;;;;9.90;3.08;;;7.00;99.90;;;;;;6125038;23;20006;-88
2022/01/17 02:51:54;;;;;;;;;;;;;;;;;;;;;
2022/01/17 02:55:21;;;;;;;8.32;1.88;;;7.00;99.90;;;;;;6127652;23;20072;-88
2022/01/17 02:57:58;;;;;;;13.85;2.65;;;7.00;99.90;;;;;;6110659;23;20046;-88
2022/01/17 03:04:11;;;;;;;;;;;;;;;;;;;;;
2022/01/17 03:10:01;;;;;;;;;;;7.00;99.90;;;;;;6099230;23;20014;-88
2022/01/17 03:12:43;;;;;;;;;;;;;;;;;;;;;
2022/01/17 03:15:30;;;;;;;;;;;;;;;;;;;;;
2022/01/17 03:18:06;;;;;;;;;;;;;;;;;;;;;
2022/01/17 03:21:00;;;;;;;10.55;2.25;;;6.90;99.90;;;;;;6151384;23;19998;-89
2022/01/17 03:24:03;;;;;;;;;;;;;;;;;;;;;
2022/01/17 03:29:45;;;;;;;9.75;2.08;;;6.90;99.90;;;;;;6117027;23;20048;-88
2022/01/17 03:38:32;;;;;;;12.98;2.58;;;6.80;99.90;;;;;;6127698;23;20006;-88
2022/01/17 03:41:34;;;;;;;8.52;1.90;;;6.80;99.90;;;;;;6101745;23;20002;-89
2022/01/17 03:44:15;;;;;;;9.63;2.72;;;6.70;99.90;;;;;;6079464;23;20006;-88
2022/01/17 03:47:03;;;;;;;14.02;2.28;;;6.70;99.90;;;;;;6104140;23;20014;-89
2022/01/17 03:49:57;;;;;;;;;;;;;;;;;;;;;
2022/01/17 03:52:44;;;;;;;;;;;;;;;;;;;;;
2022/01/17 03:55:27;;;;;;;11.00;2.25;;;6.50;99.90;;;;;;6104591;23;20085;-87
2022/01/17 04:01:40;;;;;;;7.57;1.80;;;6.50;99.90;;;;;;6100194;23;20037;-88
2022/01/17 04:03:47;;;;;;;8.73;2.10;;;6.40;99.90;;;;;;6101903;23;20006;-88
2022/01/17 04:06:41;;;;;;;;;;;;;;;;;;;;;
2022/01/17 04:09:37;;;;;;;;;;;;;;;;;;;;;
2022/01/17 04:12:42;;;;;;;9.45;2.45;;;6.30;99.90;;;;;;6110226;23;20074;-88
2022/01/17 04:15:36;;;;;;;10.25;2.25;;;6.30;99.90;;;;;;6122284;23;20019;-88
2022/01/17 04:18:24;;;;;;;11.20;2.33;;;6.20;99.90;;;;;;6122745;23;20445;-89
2022/01/17 04:23:58;;;;;;;5.68;1.77;;;6.10;99.90;;;;;;6066000;23;20050;-89
2022/01/17 04:26:31;;;;;;;7.88;1.77;;;6.10;99.90;;;;;;6076401;23;20011;-90
2022/01/17 04:30:05;;;;;;;11.30;2.35;;;6.10;99.90;;;;;;6098797;23;20021;-90
2022/01/17 04:33:16;;;;;;;9.73;2.03;;;6.00;99.90;;;;;;6095033;23;20011;-90
2022/01/17 04:36:10;;;;;;;;;;;;;;;;;;;;;
2022/01/17 04:42:09;;;;;;;12.45;2.20;;;6.00;99.90;;;;;;6086026;23;19995;-91
2022/01/17 04:45:11;;;;;;;9.20;2.30;;;6.00;99.90;;;;;;6149734;23;19995;-93
2022/01/17 04:51:00;;;;;;;;;;;;;;;;;;;;;
2022/01/17 04:53:50;;;;;;;;;;;;;;;;;;;;;
2022/01/17 04:56:25;;;;;;;7.20;1.87;;;6.00;99.90;;;;;;6099589;23;20086;-89
2022/01/17 04:59:20;;;;;;;6.72;2.25;;;6.00;99.90;;;;;;6098432;23;20266;-89
2022/01/17 05:02:36;;;;;;;;;;;;;;;;;;;;;
2022/01/17 05:05:27;;;;;;;8.05;1.60;;;6.00;99.90;;;;;;6093017;23;20073;-90
2022/01/17 05:08:02;;;;;;;7.50;1.75;;;6.00;99.90;;;;;;6098410;23;20032;-89
2022/01/17 05:10:46;;;;;;;;;;;;;;;;;;;;;
2022/01/17 05:13:45;;;;;;;;;;;;;;;;;;;;;
2022/01/17 05:16:31;;;;;;;11.90;2.30;;;6.10;99.90;;;;;;6128596;23;20077;-88
2022/01/17 05:22:18;;;;;;;6.18;2.00;;;6.10;99.90;;;;;;6125756;23;20388;-89
2022/01/17 05:25:09;;;;;;;8.30;1.98;;;6.10;99.90;;;;;;6104374;23;20065;-89
2022/01/17 05:27:59;;;;;;;7.38;2.00;;;6.00;99.90;;;;;;6118812;23;20013;-89
2022/01/17 05:30:39;;;;;;;11.27;1.90;;;6.00;99.90;;;;;;6103049;23;20010;-89
2022/01/17 05:33:43;;;;;;;13.57;2.15;;;6.00;99.90;;;;;;6097544;23;20061;-90
2022/01/17 05:36:38;;;;;;;9.70;2.20;;;6.00;99.90;;;;;;6102618;23;20006;-89
2022/01/17 05:39:14;;;;;;;11.80;2.28;;;6.00;99.90;;;;;;6087995;23;20014;-90
2022/01/17 05:41:55;;;;;;;7.40;2.30;;;5.90;99.90;;;;;;6102762;23;20006;-90
2022/01/17 05:44:50;;;;;;;8.77;2.70;;;5.90;99.90;;;;;;6102963;23;20002;-91
2022/01/17 05:54:16;;;;;;;8.38;2.25;;;5.90;99.90;;;;;;6128861;23;20020;-91
2022/01/17 05:57:20;;;;;;;;;;;;;;;;;;;;;
2022/01/17 06:03:46;;;;;;;14.02;3.38;;;5.80;99.90;;;;;;6083897;23;20006;-91
2022/01/17 06:06:45;;;;;;;;;;;;;;;;;;;;;
2022/01/17 06:09:45;;;;;;;;;;;;;;;;;;;;;
2022/01/17 06:13:04;;;;;;;;;;;;;;;;;;;;;
2022/01/17 06:19:58;;;;;;;;;;;;;;;;;;;;;
2022/01/17 06:23:09;;;;;;;14.70;5.25;;;5.80;99.90;;;;;;6061901;23;20011;-91
2022/01/17 06:26:15;;;;;;;9.13;4.07;;;5.80;99.90;;;;;;6109336;23;20001;-90
2022/01/17 06:28:56;;;;;;;11.27;4.68;;;5.80;99.90;;;;;;6104511;23;20072;-89
2022/01/17 06:31:37;;;;;;;11.20;4.40;;;5.70;99.90;;;;;;6107935;23;20014;-90
2022/01/17 06:34:06;;;;;;;14.98;5.15;;;5.70;99.90;;;;;;6080523;23;20005;-89
2022/01/17 06:36:49;;;;;;;12.48;5.00;;;5.70;99.90;;;;;;6102025;23;20385;-88
2022/01/17 06:40:14;;;;;;;;;;;;;;;;;;;;;
2022/01/17 06:43:10;;;;;;;13.75;4.88;;;5.70;99.90;;;;;;6126531;23;20089;-88
2022/01/17 06:49:12;;;;;;;;;;;;;;;;;;;;;
2022/01/17 06:54:53;;;;;;;;;;;;;;;;;;;;;
2022/01/17 06:58:00;;;;;;;11.70;5.40;;;5.60;99.90;;;;;;6083686;23;20088;-88
2022/01/17 07:04:02;;;;;;;13.88;5.88;;;5.60;99.90;;;;;;6112857;23;20017;-90
2022/01/17 07:10:06;;;;;;;;;;;;;;;;;;;;;
2022/01/17 07:12:54;;;;;;;;;;;;;;;;;;;;;
2022/01/17 07:15:30;;;;;;;14.88;6.78;;;5.50;99.90;;;;;;6125499;23;20399;-88
2022/01/17 07:18:12;;;;;;;14.93;6.88;;;5.60;99.90;;;;;;6078724;23;20158;-88
2022/01/17 07:21:01;;;;;;;14.57;6.65;;;5.60;99.90;;;;;;6107090;23;20026;-90
2022/01/17 07:24:05;;;;;;;;;;;;;;;;;;;;;
2022/01/17 07:26:42;;;;;;;22.88;8.55;;;5.70;99.90;;;;;;6095097;23;20077;-87
2022/01/17 07:29:26;;;;;;;;;;;;;;;;;;;;;
2022/01/17 07:36:02;;;;;;;16.98;9.73;;;5.70;99.90;;;;;;6106881;23;20013;-88
2022/01/17 07:39:02;;;;;;;18.58;9.52;;;5.80;99.90;;;;;;6127432;23;20078;-89
2022/01/17 07:42:03;;;;;;;;;;;;;;;;;;;;;
2022/01/17 07:44:39;;;;;;;21.85;12.20;;;5.80;99.90;;;;;;6128295;23;20006;-88
2022/01/17 07:48:06;;;;;;;;;;;;;;;;;;;;;
2022/01/17 07:51:23;;;;;;;;;;;;;;;;;;;;;
2022/01/17 07:54:17;;;;;;;24.48;11.45;;;5.90;99.90;;;;;;6127443;23;20424;-91
2022/01/17 07:57:27;;;;;;;;;;;;;;;;;;;;;
2022/01/17 08:03:39;;;;;;;21.70;11.57;;;6.10;99.90;;;;;;6127946;23;20009;-89
2022/01/17 08:06:46;;;;;;;;;;;;;;;;;;;;;
2022/01/17 08:09:20;;;;;;;24.30;13.07;;;6.20;99.90;;;;;;6128756;23;20089;-89
2022/01/17 08:14:57;;;;;;;25.73;13.23;;;6.20;99.90;;;;;;6121688;23;20018;-87
2022/01/17 08:27:43;;;;;;;;;;;;;;;;;;;;;
2022/01/17 08:30:53;;;;;;;29.77;13.52;;;6.30;99.90;;;;;;6130023;23;20081;-92
2022/01/17 08:33:51;;;;;;;;;;;;;;;;;;;;;
2022/01/17 08:40:18;;;;;;;;;;;;;;;;;;;;;
2022/01/17 08:47:25;;;;;;;;;;;;;;;;;;;;;
2022/01/17 09:00:59;;;;;;;;;;;;;;;;;;;;;
2022/01/17 09:27:18;;;;;;;;;;;;;;;;;;;;;
2022/01/17 09:30:17;;;;;;;21.63;11.27;;;6.80;99.90;;;;;;6126543;23;20085;-86
2022/01/17 09:33:27;;;;;;;24.02;10.68;;;6.80;99.90;;;;;;6101032;23;20010;-87
2022/01/17 09:36:24;;;;;;;20.20;10.18;;;6.80;99.90;;;;;;6127224;23;20010;-87
2022/01/17 09:42:58;;;;;;;;;;;;;;;;;;;;;
2022/01/17 09:45:56;;;;;;;;;;;;;;;;;;;;;
2022/01/17 09:49:12;;;;;;;;;;;;;;;;;;;;;
2022/01/17 09:52:24;;;;;;;21.35;10.52;;;6.90;99.90;;;;;;6107528;23;20089;-87
2022/01/17 09:55:20;;;;;;;;;;;;;;;;;;;;;
2022/01/17 09:58:55;;;;;;;25.02;10.93;;;6.90;99.90;;;;;;6113330;23;20098;-87
2022/01/17 10:01:17;;;;;;;18.10;9.30;;;7.00;99.90;;;;;;6095164;23;20381;-89
2022/01/17 10:03:56;;;;;;;26.75;10.27;;;7.00;99.90;;;;;;6102036;23;19998;-88
2022/01/17 10:06:37;;;;;;;19.90;9.50;;;7.10;99.90;;;;;;6100310;23;20009;-86
2022/01/17 10:09:31;;;;;;;20.00;8.77;;;7.10;99.90;;;;;;6101702;23;20017;-86
2022/01/17 10:12:45;;;;;;;19.85;9.05;;;7.10;99.90;;;;;;6126116;23;20325;-88
2022/01/17 10:15:55;;;;;;;;;;;;;;;;;;;;;
2022/01/17 10:19:24;;;;;;;13.75;6.95;;;7.10;99.90;;;;;;6108966;23;20081;-88
2022/01/17 10:22:12;;;;;;;18.67;7.95;;;7.20;99.90;;;;;;5959442;24;20008;-88
2022/01/17 10:28:31;;;;;;;;;;;;;;;;;;;;;
2022/01/17 10:38:03;;;;;;;17.52;6.07;;;7.30;99.90;;;;;;6104954;23;20020;-91
2022/01/17 10:41:21;;;;;;;14.38;6.18;;;7.30;99.90;;;;;;6152578;23;19990;-88
2022/01/17 10:43:49;;;;;;;20.05;6.20;;;7.40;99.90;;;;;;6146076;23;19990;-89
2022/01/17 10:46:55;;;;;;;16.65;5.63;;;7.30;99.90;;;;;;6103084;23;20099;-87
2022/01/17 10:50:21;;;;;;;;;;;;;;;;;;;;;
2022/01/17 10:52:59;;;;;;;17.95;6.00;;;7.40;99.90;;;;;;6126944;23;20089;-87
2022/01/17 10:56:07;;;;;;;21.40;6.40;;;7.40;99.90;;;;;;6078255;23;20010;-88
2022/01/17 10:59:24;;;;;;;17.08;5.53;;;7.40;99.90;;;;;;6100766;23;20483;-88
2022/01/17 11:01:59;;;;;;;19.10;5.60;;;7.50;99.90;;;;;;6125624;23;20151;-87
2022/01/17 11:04:58;;;;;;;;;;;;;;;;;;;;;
2022/01/17 11:07:38;;;;;;;18.48;5.50;;;7.50;99.90;;;;;;6126474;23;20069;-89
2022/01/17 11:16:11;;;;;;;;;;;;;;;;;;;;;
2022/01/17 11:18:42;;;;;;;26.85;5.93;;;7.70;99.90;;;;;;6126878;23;20076;-89
2022/01/17 11:21:23;;;;;;;22.83;5.80;;;7.70;99.90;;;;;;6102514;23;20454;-89
2022/01/17 11:24:09;;;;;;;;;;;;;;;;;;;;;
2022/01/17 11:27:03;;;;;;;18.73;5.70;;;7.70;99.90;;;;;;6103085;23;20329;-89
2022/01/17 11:30:00;;;;;;;18.02;4.95;;;7.80;99.90;;;;;;6126126;23;20017;-89
2022/01/17 11:36:06;;;;;;;;;;;;;;;;;;;;;
2022/01/17 11:39:14;;;;;;;18.70;5.47;;;7.90;99.90;;;;;;6105523;23;20089;-87
2022/01/17 11:54:54;;;;;;;14.35;4.70;;;8.00;99.90;;;;;;6108218;23;20061;-88
2022/01/17 11:58:10;;;;;;;;;;;;;;;;;;;;;
2022/01/17 12:04:33;;;;;;;;;;;;;;;;;;;;;
2022/01/17 12:07:18;;;;;;;;;;;;;;;;;;;;;
2022/01/17 12:09:54;;;;;;;;;;;;;;;;;;;;;
2022/01/17 12:13:03;;;;;;;16.65;4.88;;;8.10;99.90;;;;;;6150543;23;19986;-87
2022/01/17 12:16:16;;;;;;;;;;;;;;;;;;;;;
2022/01/17 12:19:28;;;;;;;;;;;;;;;;;;;;;
2022/01/17 12:21:57;;;;;;;15.55;4.75;;;8.20;99.90;;;;;;6136739;23;20318;-88
2022/01/17 12:25:18;;;;;;;19.88;5.03;;;8.20;99.90;;;;;;6103236;23;20014;-89
2022/01/17 12:28:17;;;;;;;22.80;5.35;;;8.30;99.90;;;;;;6067680;23;20010;-90
2022/01/17 12:31:10;;;;;;;;;;;;;;;;;;;;;
2022/01/17 12:37:33;;;;;;;15.23;4.03;;;8.40;99.90;;;;;;6047966;23;20012;-88
2022/01/17 12:40:33;;;;;;;;;;;;;;;;;;;;;
2022/01/17 12:47:02;;;;;;;18.15;4.13;;;8.60;99.90;;;;;;6106618;23;20006;-92
2022/01/17 12:56:01;;;;;;;;;;;;;;;;;;;;;
2022/01/17 12:58:50;;;;;;;25.42;4.90;;;8.70;99.90;;;;;;6127208;23;20098;-90
2022/01/17 13:01:24;;;;;;;22.52;4.38;;;8.70;99.90;;;;;;6101704;23;20009;-89
2022/01/17 13:04:04;;;;;;;17.75;4.07;;;8.70;99.90;;;;;;6079259;23;20010;-88
2022/01/17 13:09:53;;;;;;;16.95;4.00;;;8.80;99.90;;;;;;6116850;23;20064;-88
2022/01/17 13:12:31;;;;;;;23.58;4.70;;;8.90;99.90;;;;;;6103576;23;20064;-88
2022/01/17 13:15:02;;;;;;;22.42;4.00;;;8.80;99.90;;;;;;6100915;23;20068;-88
2022/01/17 13:18:17;;;;;;;22.60;4.45;;;8.80;99.90;;;;;;6100653;23;20009;-90
2022/01/17 13:20:56;;;;;;;;;;;;;;;;;;;;;
2022/01/17 13:23:38;;;;;;;26.92;4.93;;;8.90;99.90;;;;;;6127538;23;20159;-88
2022/01/17 13:26:08;;;;;;;;;;;8.90;99.90;;;;;;6121332;23;20069;-88
2022/01/17 13:28:46;;;;;;;;;;;;;;;;;;;;;
2022/01/17 13:31:32;;;;;;;21.80;4.10;;;8.90;99.90;;;;;;6098346;23;20077;-88
2022/01/17 13:34:38;;;;;;;;;;;;;;;;;;;;;
2022/01/17 13:37:18;;;;;;;25.40;4.85;;;9.00;99.90;;;;;;6099122;23;20107;-89
2022/01/17 13:39:46;;;;;;;18.50;4.28;;;9.00;99.90;;;;;;6097296;23;20105;-88
2022/01/17 13:42:23;;;;;;;26.85;4.93;;;9.00;99.90;;;;;;6098014;23;20030;-90
2022/01/17 13:45:14;;;;;;;25.40;5.13;;;9.00;99.90;;;;;;6103685;23;20027;-89
2022/01/17 13:48:10;;;;;;;;;;;;;;;;;;;;;
2022/01/17 13:50:53;;;;;;;23.83;4.55;;;9.00;99.90;;;;;;6123907;23;20000;-90
2022/01/17 13:56:28;;;;;;;21.77;4.75;;;9.00;99.90;;;;;;6097973;23;20006;-89
2022/01/17 13:59:17;;;;;;;22.77;4.82;;;9.10;99.90;;;;;;6100564;23;20013;-94
2022/01/17 14:01:56;;;;;;;25.80;5.10;;;9.10;99.90;;;;;;6073035;23;20101;-89
2022/01/17 14:04:33;;;;;;;29.55;5.25;;;9.10;99.90;;;;;;6098462;23;20053;-89
2022/01/17 14:07:02;;;;;;;25.02;5.53;;;9.10;99.90;;;;;;6096297;23;20333;-89
2022/01/17 14:09:59;;;;;;;36.85;8.63;;;9.10;99.90;;;;;;6096250;23;20037;-88
2022/01/17 14:12:30;;;;;;;23.60;8.70;;;9.10;99.90;;;;;;6096147;23;20006;-88
2022/01/17 14:15:12;;;;;;;23.50;6.40;;;9.10;99.90;;;;;;6096476;23;20007;-89
2022/01/17 14:21:19;;;;;;;21.00;4.63;;;9.10;99.90;;;;;;6075748;23;20082;-88
2022/01/17 14:23:53;;;;;;;20.77;4.60;;;9.10;99.90;;;;;;6054006;23;20016;-89
2022/01/17 14:26:40;;;;;;;25.95;5.82;;;9.10;99.90;;;;;;6100286;23;20018;-91
2022/01/17 14:29:20;;;;;;;18.38;4.38;;;9.10;99.90;;;;;;6101352;23;20009;-87
2022/01/17 14:32:08;;;;;;;19.30;4.40;;;9.10;99.90;;;;;;6100472;23;20010;-88
2022/01/17 14:34:41;;;;;;;17.70;5.00;;;9.10;99.90;;;;;;6099011;23;20002;-89
2022/01/17 14:37:33;;;;;;;22.67;4.80;;;9.20;99.90;;;;;;6100902;23;19998;-88
2022/01/17 14:40:05;;;;;;;25.38;5.53;;;9.20;99.90;;;;;;6126472;23;20008;-88
2022/01/17 14:42:48;;;;;;;;;;;;;;;;;;;;;
2022/01/17 14:45:38;;;;;;;;;;;;;;;;;;;;;
2022/01/17 14:48:18;;;;;;;29.25;5.88;;;9.20;99.90;;;;;;6102923;23;20077;-87
2022/01/17 14:50:50;;;;;;;26.00;5.97;;;9.20;99.90;;;;;;6100483;23;20443;-87
2022/01/17 14:53:19;;;;;;;26.00;6.10;;;9.20;99.90;;;;;;6077161;23;20013;-88
2022/01/17 15:01:37;;;;;;;;;;;;;;;;;;;;;
2022/01/17 15:04:19;;;;;;;24.98;5.20;;;9.10;99.90;;;;;;6126843;23;20085;-88
2022/01/17 15:07:01;;;;;;;20.30;4.38;;;9.10;99.90;;;;;;6126704;23;20034;-87
2022/01/17 15:09:40;;;;;;;30.85;5.50;;;9.10;99.90;;;;;;6078826;23;20101;-88
2022/01/17 15:15:07;;;;;;;24.98;5.20;;;9.10;99.90;;;;;;6126528;23;20041;-88
2022/01/17 15:17:37;;;;;;;28.50;5.90;;;9.20;99.90;;;;;;6076930;23;20009;-88
2022/01/17 15:20:41;;;;;;;;;;;;;;;;;;;;;
2022/01/17 15:23:23;;;;;;;32.53;9.25;;;9.10;99.90;;;;;;6153181;23;19993;-87
2022/01/17 15:26:17;;;;;;;29.15;5.63;;;9.10;99.90;;;;;;6104007;23;20087;-89
2022/01/17 15:28:51;;;;;;;31.92;7.00;;;9.10;99.90;;;;;;6127275;23;20033;-92
2022/01/17 15:31:48;;;;;;;26.20;5.38;;;9.10;99.90;;;;;;6153029;23;20017;-88
2022/01/17 15:34:32;;;;;;;27.80;5.70;;;9.10;99.90;;;;;;6089375;23;20013;-89
2022/01/17 15:37:06;;;;;;;26.50;5.95;;;9.10;99.90;;;;;;6103294;23;20001;-88
2022/01/17 15:39:45;;;;;;;25.15;5.00;;;9.10;99.90;;;;;;6100404;23;20001;-88
2022/01/17 15:42:45;;;;;;;26.33;5.47;;;9.10;99.90;;;;;;6100542;23;20061;-89
2022/01/17 15:45:21;;;;;;;24.00;5.07;;;9.20;99.90;;;;;;6103233;23;20014;-89
2022/01/17 15:48:09;;;;;;;;;;;;;;;;;;;;;
2022/01/17 15:50:46;;;;;;;25.77;5.32;;;9.20;99.90;;;;;;6103397;23;20093;-89
2022/01/17 15:56:51;;;;;;;27.65;5.13;;;9.20;99.90;;;;;;6086454;23;20036;-89
2022/01/17 15:59:39;;;;;;;;;;;;;;;;;;;;;
2022/01/17 16:08:55;;;;;;;;;;;9.10;99.90;;;;;;6128895;23;20022;-89
2022/01/17 16:11:37;;;;;;;;;;;;;;;;;;;;;
2022/01/17 16:14:30;;;;;;;;;;;;;;;;;;;;;
2022/01/17 16:17:08;;;;;;;30.55;6.03;;;9.10;99.90;;;;;;6128087;23;20472;-88
2022/01/17 16:20:17;;;;;;;30.80;5.43;;;9.10;99.90;;;;;;6102745;23;20002;-87
2022/01/17 16:23:07;;;;;;;31.15;5.68;;;9.10;99.90;;;;;;6105285;23;20010;-88
2022/01/17 16:25:40;;;;;;;43.08;6.70;;;9.10;99.90;;;;;;6127627;23;20352;-87
2022/01/17 16:28:25;;;;;;;29.77;5.82;;;9.10;99.90;;;;;;6102883;23;20021;-89
2022/01/17 16:31:09;;;;;;;;;;;;;;;;;;;;;
2022/01/17 16:33:45;;;;;;;26.95;5.75;;;9.10;99.90;;;;;;6128727;23;20084;-88
2022/01/17 16:36:53;;;;;;;27.10;6.03;;;9.10;99.90;;;;;;6103885;23;20073;-88
2022/01/17 16:39:37;;;;;;;;;;;;;;;;;;;;;
2022/01/17 16:42:38;;;;;;;24.40;4.95;;;9.10;99.90;;;;;;6105223;23;20503;-88
2022/01/17 16:45:15;;;;;;;20.23;5.53;;;9.10;99.90;;;;;;6127965;23;20002;-88
2022/01/17 16:48:28;;;;;;;27.50;5.72;;;9.10;99.90;;;;;;6079926;23;20018;-88
2022/01/17 16:50:57;;;;;;;23.70;6.07;;;9.10;99.90;;;;;;6096954;23;20025;-88
2022/01/17 16:53:49;;;;;;;23.20;5.50;;;9.10;99.90;;;;;;6128790;23;20002;-88
2022/01/17 16:56:40;;;;;;;;;;;;;;;;;;;;;
2022/01/17 16:59:27;;;;;;;29.50;6.78;;;9.10;99.90;;;;;;6154380;23;19987;-89
2022/01/17 17:02:15;;;;;;;23.63;6.07;;;9.10;99.90;;;;;;6129430;23;20006;-90
2022/01/17 17:05:00;;;;;;;24.27;5.18;;;9.10;99.90;;;;;;6120692;23;20012;-88
2022/01/17 17:07:58;;;;;;;;;;;;;;;;;;;;;
2022/01/17 17:16:59;;;;;;;22.27;5.85;;;9.10;99.90;;;;;;6112133;23;20010;-89
2022/01/17 17:19:33;;;;;;;33.05;7.00;;;9.10;99.90;;;;;;6103942;23;20014;-89
2022/01/17 17:23:12;;;;;;;25.60;6.18;;;9.10;99.90;;;;;;6101269;23;20036;-88
2022/01/17 17:25:46;;;;;;;;;;;;;;;;;;;;;
2022/01/17 17:28:41;;;;;;;22.17;5.30;;;9.10;99.90;;;;;;6104631;23;20085;-89
2022/01/17 17:38:23;;;;;;;;;;;;;;;;;;;;;
2022/01/17 17:41:13;;;;;;;22.67;5.07;;;9.10;99.90;;;;;;6108435;23;20088;-88
2022/01/17 17:43:58;;;;;;;25.40;5.32;;;9.10;99.90;;;;;;6057770;23;20017;-89
2022/01/17 17:50:28;;;;;;;;;;;;;;;;;;;;;
2022/01/17 17:53:33;;;;;;;;;;;;;;;;;;;;;
2022/01/17 17:56:19;;;;;;;19.63;5.10;;;9.10;99.90;;;;;;6127357;23;20389;-89
2022/01/17 17:59:27;;;;;;;22.65;4.47;;;9.10;99.90;;;;;;6079798;23;20014;-89
2022/01/17 18:05:53;;;;;;;25.80;5.97;;;9.10;99.90;;;;;;6102809;23;20376;-88
2022/01/17 18:11:59;;;;;;;25.30;6.32;;;9.10;99.90;;;;;;6084726;23;19972;-88
2022/01/17 18:14:51;;;;;;;33.83;5.75;;;9.10;99.90;;;;;;6073332;23;20010;-88
2022/01/17 18:21:03;;;;;;;29.65;5.78;;;9.10;99.90;;;;;;5941855;24;20368;-87
2022/01/17 18:23:46;;;;;;;29.25;5.18;;;9.10;99.90;;;;;;5937558;24;20019;-87
2022/01/17 18:26:29;;;;;;;26.33;5.70;;;9.10;99.90;;;;;;5967274;24;20023;-88
2022/01/17 18:29:04;;;;;;;26.90;5.35;;;9.10;99.90;;;;;;5952264;24;20044;-88
2022/01/17 18:32:14;;;;;;;;;;;;;;;;;;;;;
2022/01/17 18:35:26;;;;;;;25.35;6.35;;;9.10;99.90;;;;;;5975240;24;20008;-87
2022/01/17 18:38:25;;;;;;;23.92;5.38;;;9.10;99.90;;;;;;5957318;24;20016;-87
2022/01/17 18:41:23;;;;;;;;;;;;;;;;;;;;;
2022/01/17 18:44:30;;;;;;;19.67;4.63;;;9.00;99.90;;;;;;5982032;23;20081;-87
2022/01/17 18:47:24;;;;;;;18.95;5.03;;;9.00;99.90;;;;;;6101632;23;20318;-88
2022/01/17 18:50:21;;;;;;;;;;;;;;;;;;;;;
2022/01/17 18:53:06;;;;;;;;;;;;;;;;;;;;;
2022/01/17 18:58:49;;;;;;;17.95;4.45;;;9.10;99.90;;;;;;6019556;23;20019;-88
2022/01/17 19:01:37;;;;;;;;;;;;;;;;;;;;;
2022/01/17 19:04:26;;;;;;;26.88;5.70;;;9.00;99.90;;;;;;6012395;23;20503;-87
2022/01/17 19:07:33;;;;;;;25.30;5.20;;;9.00;99.90;;;;;;6036988;23;20027;-89
2022/01/17 19:10:29;;;;;;;25.50;5.20;;;9.00;99.90;;;;;;6068005;23;20332;-87
2022/01/17 19:20:51;;;;;;;;;;;;;;;;;;;;;
2022/01/17 19:26:53;;;;;;;22.25;5.18;;;9.00;99.90;;;;;;6075084;23;20022;-87
2022/01/17 19:33:16;;;;;;;26.75;5.30;;;9.10;99.90;;;;;;6065898;23;20014;-87
2022/01/17 19:36:03;;;;;;;;;;;;;;;;;;;;;
2022/01/17 19:38:51;;;;;;;23.40;5.10;;;9.00;99.90;;;;;;6126966;23;20089;-87
2022/01/17 19:42:06;;;;;;;30.45;5.60;;;9.00;99.90;;;;;;6102836;23;20002;-87
2022/01/17 19:45:05;;;;;;;;;;;;;;;;;;;;;
2022/01/17 19:47:55;;;;;;;;;;;;;;;;;;;;;
2022/01/17 19:50:42;;;;;;;33.17;7.22;;;9.00;99.90;;;;;;6105764;23;20085;-88
2022/01/17 19:53:33;;;;;;;25.98;5.05;;;8.90;99.90;;;;;;6100443;23;20048;-89
2022/01/17 19:56:11;;;;;;;25.25;6.13;;;8.90;99.90;;;;;;6105323;23;20034;-88
2022/01/17 19:59:08;;;;;;;;;;;;;;;;;;;;;
2022/01/17 20:01:47;;;;;;;31.15;6.68;;;8.90;99.90;;;;;;6126760;23;20500;-89
2022/01/17 20:04:49;;;;;;;23.52;5.32;;;8.90;99.90;;;;;;6111488;23;20009;-88
2022/01/17 20:08:01;;;;;;;34.85;7.47;;;8.90;99.90;;;;;;6128330;23;19990;-89
2022/01/17 20:10:44;;;;;;;;;;;;;;;;;;;;;
2022/01/17 20:13:44;;;;;;;;;;;;;;;;;;;;;
2022/01/17 20:17:24;;;;;;;;;;;;;;;;;;;;;
2022/01/17 20:20:34;;;;;;;29.27;5.90;;;8.90;99.90;;;;;;6127443;23;20089;-89
2022/01/17 20:26:58;;;;;;;;;;;;;;;;;;;;;
2022/01/17 20:32:56;;;;;;;25.58;5.43;;;8.90;99.90;;;;;;6106212;23;20005;-90
2022/01/17 20:36:03;;;;;;;27.48;5.72;;;8.90;99.90;;;;;;6127075;23;20002;-90
2022/01/17 20:39:14;;;;;;;29.55;5.47;;;8.90;99.90;;;;;;6101244;23;20013;-90
2022/01/17 20:45:52;;;;;;;;;;;;;;;;;;;;;
2022/01/17 20:48:42;;;;;;;;;;;;;;;;;;;;;
2022/01/17 20:51:25;;;;;;;;;;;8.90;99.90;;;;;;6128782;23;20082;-89
2022/01/17 20:54:06;;;;;;;;;;;;;;;;;;;;;
2022/01/17 20:56:56;;;;;;;;;;;;;;;;;;;;;
2022/01/17 20:59:55;;;;;;;21.15;5.53;;;8.80;99.90;;;;;;6128526;23;20089;-90
2022/01/17 21:02:34;;;;;;;20.70;4.20;;;8.80;99.90;;;;;;6102682;23;20014;-90
2022/01/17 21:05:38;;;;;;;;;;;;;;;;;;;;;
2022/01/17 21:08:57;;;;;;;;;;;;;;;;;;;;;
2022/01/17 21:11:36;;;;;;;20.70;4.32;;;8.70;99.90;;;;;;6115958;23;20085;-88
2022/01/17 21:14:35;;;;;;;17.35;4.38;;;8.60;99.90;;;;;;6102392;23;20030;-90
2022/01/17 21:21:00;;;;;;;;;;;;;;;;;;;;;
2022/01/17 21:23:54;;;;;;;18.02;4.55;;;8.60;99.90;;;;;;6127906;23;20077;-90
2022/01/17 21:26:41;;;;;;;;;;;;;;;;;;;;;
2022/01/17 21:30:00;;;;;;;29.92;7.35;;;8.50;99.90;;;;;;6105022;23;20524;-90
2022/01/17 21:33:13;;;;;;;22.25;4.70;;;8.50;99.90;;;;;;6078170;23;20025;-89
2022/01/17 21:35:51;;;;;;;;;;;;;;;;;;;;;
2022/01/17 21:38:31;;;;;;;16.80;4.38;;;8.50;99.90;;;;;;6092160;23;20014;-90
2022/01/17 21:41:07;;;;;;;;;;;;;;;;;;;;;
2022/01/17 21:43:49;;;;;;;16.65;4.70;;;8.50;99.90;;;;;;6153361;23;20006;-90
2022/01/17 21:47:08;;;;;;;;;;;;;;;;;;;;;
2022/01/17 21:52:54;;;;;;;27.90;5.70;;;8.60;99.90;;;;;;6083504;23;20002;-90
2022/01/17 22:08:32;;;;;;;;;;;;;;;;;;;;;
2022/01/17 22:14:28;;;;;;;19.80;5.45;;;8.50;99.90;;;;;;6092202;23;20006;-89
2022/01/17 22:18:14;;;;;;;;;;;;;;;;;;;;;
2022/01/17 22:20:56;;;;;;;22.20;5.05;;;8.50;99.90;;;;;;5974774;24;20079;-90
2022/01/17 22:24:05;;;;;;;22.27;5.28;;;8.50;99.90;;;;;;5959164;24;20008;-92
2022/01/17 22:26:53;;;;;;;21.75;5.72;;;8.50;99.90;;;;;;5956935;24;20023;-91
2022/01/17 22:29:42;;;;;;;;;;;;;;;;;;;;;
2022/01/17 22:32:45;;;;;;;;;;;;;;;;;;;;;
2022/01/17 22:35:42;;;;;;;;;;;;;;;;;;;;;
2022/01/17 22:39:03;;;;;;;24.80;5.28;;;8.40;99.90;;;;;;6113270;23;20097;-90
2022/01/17 22:41:41;;;;;;;;;;;;;;;;;;;;;
2022/01/17 22:44:48;;;;;;;28.83;5.90;;;8.40;99.90;;;;;;6127404;23;20069;-90
2022/01/17 22:48:29;;;;;;;;;;;;;;;;;;;;;
2022/01/17 22:54:00;;;;;;;24.35;5.50;;;8.30;99.90;;;;;;6091003;23;20021;-89
2022/01/17 22:56:45;;;;;;;;;;;;;;;;;;;;;
2022/01/17 22:59:34;;;;;;;24.45;6.32;;;8.30;99.90;;;;;;6127580;23;20377;-90
2022/01/17 23:02:37;;;;;;;23.35;5.43;;;8.30;99.90;;;;;;6102348;23;20030;-90
2022/01/17 23:05:31;;;;;;;29.60;6.22;;;8.30;99.90;;;;;;6102887;23;20029;-90
2022/01/17 23:08:53;;;;;;;;;;;;;;;;;;;;;
2022/01/17 23:11:42;;;;;;;23.05;6.45;;;8.30;99.90;;;;;;6131340;23;20057;-90
2022/01/17 23:15:01;;;;;;;;;;;;;;;;;;;;;
2022/01/17 23:21:05;;;;;;;;;;;;;;;;;;;;;
2022/01/17 23:24:42;;;;;;;;;;;;;;;;;;;;;
2022/01/17 23:36:56;;;;;;;23.42;5.72;;;8.20;99.90;;;;;;6107504;23;20499;-89
2022/01/17 23:39:39;;;;;;;24.02;6.75;;;8.20;99.90;;;;;;6126762;23;20010;-90
2022/01/17 23:48:58;;;;;;;;;;;;;;;;;;;;;
2022/01/17 23:51:27;;;;;;;30.88;6.50;;;8.20;99.90;;;;;;6117379;23;19992;-90
2022/01/17 23:54:26;;;;;;;;;;;;;;;;;;;;;
2022/01/17 23:57:23;;;;;;;;;;;;;;;;;;;;;
